createdAt,value
2023-04-14T00:01:00.767Z,50.00
2023-04-14T00:03:28.040Z,48.75
2023-04-14T00:05:55.733Z,51.50
2023-04-14T00:08:22.944Z,55.75
2023-04-14T00:10:50.203Z,50.25
2023-04-14T00:13:17.286Z,54.75
2023-04-14T00:15:44.745Z,55.75
2023-04-14T00:18:11.738Z,53.75
2023-04-14T00:20:39.129Z,51.50
2023-04-14T00:23:06.430Z,50.50
2023-04-14T00:25:33.656Z,49.00
2023-04-14T00:28:01.006Z,50.25
2023-04-14T00:30:28.692Z,52.75
2023-04-14T00:32:55.617Z,50.50
2023-04-14T00:35:25.241Z,51.75
2023-04-14T00:37:52.720Z,50.00
2023-04-14T00:40:20.220Z,53.75
2023-04-14T00:42:47.953Z,51.50
2023-04-14T00:45:15.555Z,50.50
2023-04-14T00:47:47.373Z,53.00
2023-04-14T00:50:15.767Z,56.00
2023-04-14T00:52:45.042Z,50.75
2023-04-14T00:55:12.581Z,51.25
2023-04-14T00:57:40.325Z,49.75
2023-04-14T01:00:08.640Z,51.75
2023-04-14T01:02:36.129Z,50.25
2023-04-14T01:05:04.214Z,50.75
2023-04-14T01:07:31.672Z,52.00
2023-04-14T01:09:59.055Z,49.75
2023-04-14T01:12:35.844Z,50.25
2023-04-14T01:15:14.636Z,49.25
2023-04-14T01:18:03.556Z,48.75
2023-04-14T01:20:37.195Z,34.25
2023-04-14T01:23:09.470Z,50.00
2023-04-14T01:25:39.940Z,48.25
2023-04-14T01:28:21.596Z,52.25
2023-04-14T01:30:58.370Z,48.75
2023-04-14T01:33:27.015Z,48.75
2023-04-14T01:35:57.440Z,49.50
2023-04-14T01:38:27.660Z,45.50
2023-04-14T01:41:03.355Z,47.75
2023-04-14T01:43:32.683Z,50.00
2023-04-14T01:46:10.811Z,49.00
2023-04-14T01:48:38.183Z,50.00
2023-04-14T01:51:06.166Z,46.75
2023-04-14T01:53:34.158Z,49.25
2023-04-14T01:56:02.946Z,46.25
2023-04-14T01:58:31.112Z,41.25
2023-04-14T02:00:58.831Z,45.00
2023-04-14T02:03:26.806Z,47.25
2023-04-14T02:05:54.361Z,50.00
2023-04-14T02:08:23.462Z,48.75
2023-04-14T02:10:52.909Z,48.00
2023-04-14T02:13:20.997Z,50.00
2023-04-14T02:15:49.440Z,54.50
2023-04-14T02:18:19.747Z,51.00
2023-04-14T02:20:49.131Z,50.25
2023-04-14T02:23:16.243Z,50.50
2023-04-14T02:25:52.807Z,43.75
2023-04-14T02:28:21.839Z,49.75
2023-04-14T02:30:51.809Z,49.25
2023-04-14T02:33:23.675Z,48.25
2023-04-14T02:36:02.492Z,48.25
2023-04-14T02:38:37.119Z,45.00
2023-04-14T02:41:11.703Z,49.50
2023-04-14T02:43:49.946Z,43.75
2023-04-14T02:46:18.754Z,48.25
2023-04-14T02:48:46.863Z,47.50
2023-04-14T02:51:14.892Z,45.75
2023-04-14T02:53:42.114Z,47.25
2023-04-14T02:56:09.612Z,48.75
2023-04-14T02:58:37.066Z,52.00
2023-04-14T03:01:05.238Z,49.25
2023-04-14T03:03:37.481Z,49.25
2023-04-14T03:06:07.081Z,47.00
2023-04-14T03:08:35.190Z,49.50
2023-04-14T03:11:02.624Z,49.25
2023-04-14T03:13:31.541Z,52.25
2023-04-14T03:15:59.617Z,48.75
2023-04-14T03:18:27.673Z,49.00
2023-04-14T03:20:56.275Z,49.25
2023-04-14T03:23:25.562Z,51.50
2023-04-14T03:25:54.170Z,52.25
2023-04-14T03:28:24.166Z,50.50
2023-04-14T03:30:55.732Z,52.50
2023-04-14T03:33:28.729Z,52.00
2023-04-14T03:35:58.739Z,48.50
2023-04-14T03:38:28.129Z,52.25
2023-04-14T03:40:59.283Z,51.75
2023-04-14T03:43:28.685Z,51.50
2023-04-14T03:45:56.995Z,49.25
2023-04-14T03:48:26.532Z,51.25
2023-04-14T03:50:55.455Z,54.25
2023-04-14T03:53:22.434Z,53.00
2023-04-14T03:55:51.813Z,41.75
2023-04-14T03:58:20.442Z,45.75
2023-04-14T04:00:47.746Z,52.75
2023-04-14T04:03:16.874Z,55.75
2023-04-14T04:05:44.902Z,50.00
2023-04-14T04:08:13.083Z,51.75
2023-04-14T04:10:41.158Z,51.25
2023-04-14T04:13:16.555Z,51.00
2023-04-14T04:15:44.766Z,48.25
2023-04-14T04:18:15.517Z,46.00
2023-04-14T04:20:42.795Z,48.75
2023-04-14T04:23:10.187Z,52.00
2023-04-14T04:25:38.772Z,34.50
2023-04-14T04:28:06.097Z,49.50
2023-04-14T04:30:34.149Z,49.25
2023-04-14T04:33:05.466Z,49.25
2023-04-14T04:35:32.966Z,50.00
2023-04-14T04:38:02.960Z,48.00
2023-04-14T04:40:37.778Z,52.00
2023-04-14T04:43:05.481Z,50.00
2023-04-14T04:45:45.455Z,51.75
2023-04-14T04:48:12.721Z,44.25
2023-04-14T04:50:40.297Z,43.00
2023-04-14T04:53:07.913Z,47.25
2023-04-14T04:55:34.880Z,44.00
2023-04-14T04:58:02.591Z,43.25
2023-04-14T05:00:29.559Z,45.50
2023-04-14T05:02:57.788Z,44.00
2023-04-14T05:05:25.527Z,49.00
2023-04-14T05:07:52.739Z,49.25
2023-04-14T05:10:19.740Z,48.25
2023-04-14T05:12:47.341Z,47.50
2023-04-14T05:15:14.604Z,47.25
2023-04-14T05:17:44.339Z,46.25
2023-04-14T05:20:12.364Z,48.00
2023-04-14T05:22:39.526Z,43.50
2023-04-14T05:25:06.681Z,44.25
2023-04-14T05:27:34.205Z,45.50
2023-04-14T05:30:01.405Z,46.50
2023-04-14T05:32:29.295Z,46.25
2023-04-14T05:34:57.962Z,41.25
2023-04-14T05:37:25.312Z,43.00
2023-04-14T05:39:52.386Z,41.50
2023-04-14T05:42:19.688Z,36.25
2023-04-14T05:44:46.768Z,44.00
2023-04-14T05:47:14.151Z,34.00
2023-04-14T05:49:41.650Z,42.25
2023-04-14T05:52:08.965Z,40.75
2023-04-14T05:54:35.998Z,40.00
2023-04-14T05:57:03.684Z,43.25
2023-04-14T05:59:30.753Z,42.00
2023-04-14T06:01:58.372Z,46.25
2023-04-14T06:04:25.888Z,37.25
2023-04-14T06:06:53.137Z,39.75
2023-04-14T06:09:20.043Z,43.75
2023-04-14T06:11:47.572Z,41.50
2023-04-14T06:14:14.624Z,41.25
2023-04-14T06:16:42.244Z,38.75
2023-04-14T06:19:09.807Z,40.25
2023-04-14T06:21:37.156Z,40.00
2023-04-14T06:24:04.452Z,37.33
2023-04-14T06:26:32.846Z,42.00
2023-04-14T06:29:01.234Z,40.33
2023-04-14T06:31:28.827Z,30.00
2023-04-14T06:33:56.614Z,37.33
2023-04-14T06:36:23.773Z,36.00
2023-04-14T06:38:50.825Z,35.33
2023-04-14T06:41:18.558Z,37.33
2023-04-14T06:43:45.607Z,35.67
2023-04-14T06:46:13.129Z,41.67
2023-04-14T06:48:40.588Z,36.67
2023-04-14T06:51:10.709Z,32.67
2023-04-14T06:53:40.605Z,16.33
2023-04-14T06:56:08.557Z,34.33
2023-04-14T06:58:35.685Z,34.33
2023-04-14T07:01:03.802Z,37.67
2023-04-14T07:03:31.434Z,38.00
2023-04-14T07:06:07.218Z,28.00
2023-04-14T07:08:35.419Z,36.67
2023-04-14T07:11:08.887Z,38.00
2023-04-14T07:13:37.036Z,37.33
2023-04-14T07:16:06.659Z,36.33
2023-04-14T07:18:33.913Z,39.33
2023-04-14T07:21:01.996Z,38.67
2023-04-14T07:23:28.880Z,36.00
2023-04-14T07:25:58.144Z,36.33
2023-04-14T07:28:26.995Z,35.33
2023-04-14T07:30:54.717Z,28.00
2023-04-14T07:33:24.596Z,36.00
2023-04-14T07:36:02.057Z,10.67
2023-04-14T07:38:33.806Z,36.33
2023-04-14T07:41:04.036Z,37.67
2023-04-14T07:43:37.588Z,31.33
2023-04-14T07:46:08.566Z,34.67
2023-04-14T07:48:37.181Z,40.00
2023-04-14T07:51:05.456Z,34.33
2023-04-14T07:53:33.566Z,33.00
2023-04-14T07:56:00.583Z,33.67
2023-04-14T07:58:29.537Z,40.00
2023-04-14T08:00:57.008Z,32.67
2023-04-14T08:03:24.467Z,27.33
2023-04-14T08:05:52.028Z,32.00
2023-04-14T08:08:19.777Z,34.00
2023-04-14T08:10:46.723Z,28.00
2023-04-14T08:13:13.941Z,33.33
2023-04-14T08:15:41.196Z,33.00
2023-04-14T08:18:08.699Z,27.67
2023-04-14T08:20:36.054Z,28.67
2023-04-14T08:23:03.730Z,30.33
2023-04-14T08:25:30.738Z,30.67
2023-04-14T08:27:58.195Z,33.67
2023-04-14T08:30:26.359Z,34.00
2023-04-14T08:32:53.715Z,30.67
2023-04-14T08:35:35.282Z,26.67
2023-04-14T08:38:08.314Z,31.67
2023-04-14T08:40:38.590Z,26.67
2023-04-14T08:43:06.729Z,27.00
2023-04-14T08:45:34.672Z,24.33
2023-04-14T08:48:06.406Z,30.00
2023-04-14T08:50:38.026Z,27.67
2023-04-14T08:53:09.740Z,29.33
2023-04-14T08:55:43.423Z,25.67
2023-04-14T08:58:11.465Z,26.00
2023-04-14T09:00:40.340Z,26.67
2023-04-14T09:03:09.453Z,31.67
2023-04-14T09:05:37.546Z,32.00
2023-04-14T09:08:04.992Z,32.67
2023-04-14T09:10:32.239Z,20.67
2023-04-14T09:13:00.321Z,25.00
2023-04-14T09:15:29.208Z,29.33
2023-04-14T09:17:56.720Z,31.00
2023-04-14T09:20:35.748Z,26.67
2023-04-14T09:23:10.839Z,25.67
2023-04-14T09:25:40.005Z,26.67
2023-04-14T09:28:07.856Z,26.33
2023-04-14T09:30:34.821Z,23.00
2023-04-14T09:33:07.384Z,22.67
2023-04-14T09:35:47.666Z,22.00
2023-04-14T09:38:17.013Z,14.67
2023-04-14T09:40:45.056Z,18.00
2023-04-14T09:43:27.267Z,19.33
2023-04-14T09:45:55.071Z,19.33
2023-04-14T09:48:22.623Z,14.67
2023-04-14T09:51:03.621Z,19.00
2023-04-14T09:53:35.819Z,21.00
2023-04-14T09:56:06.904Z,17.00
2023-04-14T09:58:42.238Z,15.50
2023-04-14T10:01:13.975Z,15.25
2023-04-14T10:03:43.254Z,16.25
2023-04-14T10:06:19.642Z,18.67
2023-04-14T10:08:49.641Z,17.67
2023-04-14T10:11:20.781Z,18.00
2023-04-14T10:13:52.519Z,14.75
2023-04-14T10:16:20.228Z,13.25
2023-04-14T10:18:47.942Z,15.75
2023-04-14T10:21:16.312Z,15.50
2023-04-14T10:23:44.774Z,19.00
2023-04-14T10:26:13.058Z,21.50
2023-04-14T10:28:46.557Z,19.00
2023-04-14T10:31:24.895Z,18.75
2023-04-14T10:33:53.380Z,18.25
2023-04-14T10:36:29.440Z,18.25
2023-04-14T10:39:02.314Z,18.00
2023-04-14T10:41:49.154Z,14.00
2023-04-14T10:44:25.632Z,15.00
2023-04-14T10:46:54.583Z,16.00
2023-04-14T10:49:41.558Z,16.25
2023-04-14T10:52:14.546Z,19.25
2023-04-14T10:54:55.776Z,19.00
2023-04-14T10:57:27.295Z,16.75
2023-04-14T10:59:56.199Z,12.50
2023-04-14T11:02:30.673Z,14.50
2023-04-14T11:05:04.537Z,11.00
2023-04-14T11:07:38.588Z,9.75
2023-04-14T11:10:18.160Z,13.25
2023-04-14T11:12:47.173Z,13.75
2023-04-14T11:15:17.730Z,9.25
2023-04-14T11:17:45.000Z,12.50
2023-04-14T11:20:16.701Z,11.75
2023-04-14T11:22:48.586Z,9.25
2023-04-14T11:25:19.130Z,8.75
2023-04-14T11:27:51.876Z,8.75
2023-04-14T11:30:21.211Z,8.25
2023-04-14T11:32:57.823Z,10.75
2023-04-14T11:35:27.591Z,8.25
2023-04-14T11:37:59.517Z,9.00
2023-04-14T11:40:28.220Z,7.50
2023-04-14T11:42:57.370Z,4.25
2023-04-14T11:45:31.856Z,6.25
2023-04-14T11:48:01.125Z,6.00
2023-04-14T11:50:31.725Z,7.25
2023-04-14T11:53:03.066Z,8.00
2023-04-14T11:55:30.903Z,7.75
2023-04-14T11:57:58.251Z,5.00
2023-04-14T12:00:25.571Z,10.50
2023-04-14T12:02:52.850Z,8.75
2023-04-14T12:05:25.529Z,6.50
2023-04-14T12:07:59.398Z,8.75
2023-04-14T12:10:28.368Z,7.25
2023-04-14T12:13:05.064Z,7.00
2023-04-14T12:15:36.934Z,6.25
2023-04-14T12:18:14.071Z,9.75
2023-04-14T12:21:02.402Z,7.00
2023-04-14T12:23:29.528Z,6.50
2023-04-14T12:25:56.955Z,7.00
2023-04-14T12:28:30.072Z,8.75
2023-04-14T12:31:00.830Z,6.75
2023-04-14T12:33:29.103Z,6.00
2023-04-14T12:36:04.939Z,6.25
2023-04-14T12:38:32.683Z,6.00
2023-04-14T12:41:00.659Z,7.50
2023-04-14T12:43:32.910Z,6.00
2023-04-14T12:46:00.648Z,5.00
2023-04-14T12:48:45.930Z,6.25
2023-04-14T12:51:15.244Z,6.00
2023-04-14T12:53:44.228Z,6.75
2023-04-14T12:56:16.707Z,7.75
2023-04-14T12:58:47.145Z,3.75
2023-04-14T13:01:17.248Z,5.50
2023-04-14T13:03:46.142Z,7.25
2023-04-14T13:06:18.226Z,6.00
2023-04-14T13:08:56.501Z,5.00
2023-04-14T13:11:24.388Z,7.00
2023-04-14T13:13:52.672Z,6.00
2023-04-14T13:16:20.968Z,6.00
2023-04-14T13:18:48.934Z,5.25
2023-04-14T13:21:16.742Z,7.00
2023-04-14T13:23:43.941Z,3.75
2023-04-14T13:26:11.983Z,8.75
2023-04-14T13:28:39.321Z,9.00
2023-04-14T13:31:07.164Z,5.50
2023-04-14T13:33:34.301Z,8.25
2023-04-14T13:36:02.835Z,4.50
2023-04-14T13:38:30.416Z,10.25
2023-04-14T13:40:57.617Z,3.50
2023-04-14T13:43:25.054Z,5.75
2023-04-14T13:45:53.025Z,8.00
2023-04-14T13:48:20.044Z,7.25
2023-04-14T13:50:47.635Z,9.00
2023-04-14T13:53:14.758Z,11.50
2023-04-14T13:55:42.085Z,7.00
2023-04-14T13:58:09.937Z,7.50
2023-04-14T14:00:37.252Z,23.25
2023-04-14T14:03:04.383Z,13.50
2023-04-14T14:05:32.013Z,8.00
2023-04-14T14:07:59.193Z,6.50
2023-04-14T14:10:26.517Z,5.00
2023-04-14T14:12:54.217Z,8.50
2023-04-14T14:15:21.534Z,10.50
2023-04-14T14:17:48.718Z,11.00
2023-04-14T14:20:16.625Z,9.50
2023-04-14T14:22:43.546Z,8.75
2023-04-14T14:25:18.490Z,7.00
2023-04-14T14:27:47.837Z,8.25
2023-04-14T14:30:16.086Z,10.00
2023-04-14T14:32:43.049Z,8.00
2023-04-14T14:35:10.799Z,9.50
2023-04-14T14:37:37.954Z,9.75
2023-04-14T14:40:06.647Z,8.75
2023-04-14T14:42:34.236Z,15.00
2023-04-14T14:45:01.536Z,14.75
2023-04-14T14:47:28.934Z,16.75
2023-04-14T14:50:02.815Z,10.00
2023-04-14T14:52:32.254Z,12.50
2023-04-14T14:55:00.430Z,13.00
2023-04-14T14:57:27.719Z,8.00
2023-04-14T14:59:55.063Z,14.25
2023-04-14T15:02:22.680Z,15.75
2023-04-14T15:04:50.289Z,14.25
2023-04-14T15:07:18.081Z,14.00
2023-04-14T15:09:49.973Z,13.00
2023-04-14T15:12:17.828Z,6.25
2023-04-14T15:14:45.077Z,12.67
2023-04-14T15:17:12.284Z,9.50
2023-04-14T15:19:40.478Z,9.75
2023-04-14T15:22:08.320Z,13.75
2023-04-14T15:24:36.006Z,9.00
2023-04-14T15:27:03.520Z,7.75
2023-04-14T15:29:31.462Z,7.75
2023-04-14T15:31:58.567Z,9.25
2023-04-14T15:34:26.225Z,11.33
2023-04-14T15:36:53.147Z,13.00
2023-04-14T15:39:20.907Z,16.00
2023-04-14T15:41:50.138Z,14.00
2023-04-14T15:44:18.217Z,9.67
2023-04-14T15:46:45.534Z,11.00
2023-04-14T15:49:12.900Z,17.33
2023-04-14T15:51:39.818Z,17.33
2023-04-14T15:54:07.272Z,13.00
2023-04-14T15:56:35.606Z,13.00
2023-04-14T15:59:02.945Z,11.00
2023-04-14T16:01:30.480Z,10.67
2023-04-14T16:03:58.050Z,9.33
2023-04-14T16:06:25.275Z,11.33
2023-04-14T16:08:53.477Z,14.33
2023-04-14T16:11:20.747Z,16.67
2023-04-14T16:13:48.203Z,17.00
2023-04-14T16:16:16.573Z,19.67
2023-04-14T16:18:43.885Z,21.67
2023-04-14T16:21:11.393Z,21.67
2023-04-14T16:23:38.755Z,29.00
2023-04-14T16:26:05.947Z,26.67
2023-04-14T16:28:33.558Z,26.00
2023-04-14T16:31:01.822Z,27.00
2023-04-14T16:33:29.216Z,19.67
2023-04-14T16:35:57.200Z,24.67
2023-04-14T16:38:25.056Z,14.33
2023-04-14T16:40:59.100Z,17.67
2023-04-14T16:43:28.142Z,17.33
2023-04-14T16:46:02.451Z,20.00
2023-04-14T16:48:30.814Z,23.67
2023-04-14T16:50:57.754Z,18.67
2023-04-14T16:53:25.515Z,43.00
2023-04-14T16:55:53.304Z,16.00
2023-04-14T16:58:20.627Z,14.33
2023-04-14T17:00:47.729Z,16.67
2023-04-14T17:03:15.838Z,14.00
2023-04-14T17:05:42.931Z,16.67
2023-04-14T17:08:12.183Z,16.67
2023-04-14T17:10:41.990Z,15.00
2023-04-14T17:13:17.784Z,15.33
2023-04-14T17:15:46.313Z,16.67
2023-04-14T17:18:14.393Z,15.00
2023-04-14T17:20:42.388Z,22.33
2023-04-14T17:23:09.678Z,18.00
2023-04-14T17:25:38.591Z,18.33
2023-04-14T17:28:06.230Z,25.33
2023-04-14T17:30:35.062Z,19.00
2023-04-14T17:33:03.988Z,18.00
2023-04-14T17:35:32.307Z,19.67
2023-04-14T17:37:59.515Z,22.67
2023-04-14T17:40:27.515Z,30.33
2023-04-14T17:42:55.216Z,27.00
2023-04-14T17:45:26.022Z,21.00
2023-04-14T17:47:56.304Z,22.67
2023-04-14T17:50:24.742Z,15.67
2023-04-14T17:52:56.283Z,17.00
2023-04-14T17:55:23.846Z,24.67
2023-04-14T17:57:51.698Z,27.67
2023-04-14T18:00:20.246Z,19.67
2023-04-14T18:02:47.811Z,16.00
2023-04-14T18:05:15.896Z,19.00
2023-04-14T18:07:43.104Z,18.67
2023-04-14T18:10:10.471Z,15.33
2023-04-14T18:12:37.865Z,14.00
2023-04-14T18:15:06.338Z,2.67
2023-04-14T18:17:36.329Z,18.67
2023-04-14T18:20:04.411Z,18.33
2023-04-14T18:22:31.713Z,15.67
2023-04-14T18:24:59.431Z,31.00
2023-04-14T18:29:57.000Z,21.33
2023-04-14T18:32:25.491Z,26.67
2023-04-14T18:34:53.336Z,18.67
2023-04-14T18:37:20.413Z,16.00
2023-04-14T18:39:47.828Z,17.00
2023-04-14T18:42:15.498Z,32.67
2023-04-14T18:44:43.096Z,20.00
2023-04-14T18:47:10.444Z,25.67
2023-04-14T18:49:38.149Z,33.00
2023-04-14T18:52:05.980Z,35.67
2023-04-14T18:54:34.021Z,29.33
2023-04-14T18:57:01.333Z,35.67
2023-04-14T18:59:28.698Z,23.67
2023-04-14T19:01:56.095Z,28.67
2023-04-14T19:04:24.670Z,35.00
2023-04-14T19:06:52.046Z,33.00
2023-04-14T19:09:20.158Z,31.33
2023-04-14T19:11:48.367Z,23.00
2023-04-14T19:14:15.727Z,26.00
2023-04-14T19:16:42.827Z,22.67
2023-04-14T19:19:10.642Z,25.00
2023-04-14T19:21:37.881Z,26.33
2023-04-14T19:24:05.290Z,21.33
2023-04-14T19:26:34.470Z,26.00
2023-04-14T19:29:02.265Z,23.00
2023-04-14T19:31:29.698Z,23.67
2023-04-14T19:33:58.751Z,22.67
2023-04-14T19:36:25.699Z,19.00
2023-04-14T19:38:53.020Z,31.00
2023-04-14T19:41:20.719Z,22.00
2023-04-14T19:43:48.290Z,20.33
2023-04-14T19:46:15.787Z,23.67
2023-04-14T19:48:45.320Z,25.67
2023-04-14T19:51:13.233Z,20.67
2023-04-14T19:53:41.218Z,18.67
2023-04-14T19:56:08.905Z,21.33
2023-04-14T19:58:36.478Z,20.67
2023-04-14T20:01:03.641Z,19.00
2023-04-14T20:03:33.069Z,22.00
2023-04-14T20:06:02.129Z,19.67
2023-04-14T20:08:30.605Z,18.00
2023-04-14T20:10:57.849Z,16.33
2023-04-14T20:13:27.730Z,15.33
2023-04-14T20:15:55.125Z,16.67
2023-04-14T20:18:22.976Z,14.00
2023-04-14T20:20:50.323Z,5.67
2023-04-14T20:23:17.806Z,14.00
2023-04-14T20:25:45.699Z,14.00
2023-04-14T20:28:14.033Z,9.67
2023-04-14T20:30:41.041Z,15.33
2023-04-14T20:33:09.003Z,14.33
2023-04-14T20:35:38.500Z,11.33
2023-04-14T20:38:06.443Z,14.00
2023-04-14T20:40:33.924Z,15.00
2023-04-14T20:43:01.228Z,11.33
2023-04-14T20:45:28.738Z,15.00
2023-04-14T20:47:56.633Z,15.33
2023-04-14T20:50:24.031Z,15.33
2023-04-14T20:52:51.327Z,14.67
2023-04-14T20:55:19.596Z,13.33
2023-04-14T20:57:50.489Z,12.33
2023-04-14T21:00:18.854Z,14.67
2023-04-14T21:02:48.820Z,9.67
2023-04-14T21:05:17.774Z,10.67
2023-04-14T21:07:46.164Z,6.33
2023-04-14T21:10:15.040Z,7.00
2023-04-14T21:15:26.298Z,15.00
2023-04-14T21:15:51.477Z,8.00
2023-04-14T21:18:17.212Z,12.33
2023-04-14T21:20:44.521Z,14.67
2023-04-14T21:23:12.272Z,9.67
2023-04-14T21:25:39.335Z,9.00
2023-04-14T21:28:08.135Z,10.67
2023-04-14T21:30:35.163Z,12.67
2023-04-14T21:33:03.504Z,11.00
2023-04-14T21:35:32.565Z,13.33
2023-04-14T21:37:59.819Z,11.67
2023-04-14T21:40:28.472Z,12.33
2023-04-14T21:42:56.740Z,13.00
2023-04-14T21:45:25.151Z,10.67
2023-04-14T21:47:52.796Z,12.00
2023-04-14T21:50:19.998Z,11.00
2023-04-14T21:52:47.261Z,13.00
2023-04-14T21:55:14.460Z,10.33
2023-04-14T21:57:44.593Z,9.00
2023-04-14T22:00:17.931Z,9.33
2023-04-14T22:02:46.143Z,8.33
2023-04-14T22:05:14.617Z,11.33
2023-04-14T22:07:41.865Z,14.00
2023-04-14T22:10:09.284Z,15.67
2023-04-14T22:12:36.675Z,14.00
2023-04-14T22:15:04.583Z,13.67
2023-04-14T22:17:32.909Z,13.00
2023-04-14T22:20:00.907Z,16.00
2023-04-14T22:22:28.757Z,14.00
2023-04-14T22:24:56.206Z,17.67
2023-04-14T22:27:23.861Z,15.67
2023-04-14T22:29:50.818Z,18.67
2023-04-14T22:32:18.491Z,14.33
2023-04-14T22:34:45.898Z,15.00
2023-04-14T22:37:13.158Z,12.00
2023-04-14T22:39:40.858Z,13.33
2023-04-14T22:42:08.593Z,14.00
2023-04-14T22:44:36.710Z,11.00
2023-04-14T22:47:04.289Z,12.33
2023-04-14T22:49:31.610Z,14.00
2023-04-14T22:51:58.941Z,12.67
2023-04-14T22:54:26.586Z,12.67
2023-04-14T22:56:53.997Z,7.67
2023-04-14T22:59:20.995Z,34.00
2023-04-14T23:01:49.173Z,30.75
2023-04-14T23:04:16.368Z,32.50
2023-04-14T23:06:43.871Z,31.75
2023-04-14T23:09:10.921Z,33.00
2023-04-14T23:11:38.115Z,25.50
2023-04-14T23:14:05.217Z,23.25
2023-04-14T23:16:32.908Z,27.75
2023-04-14T23:19:00.197Z,20.50
2023-04-14T23:21:27.674Z,24.50
2023-04-14T23:23:55.078Z,18.75
2023-04-14T23:26:22.834Z,15.25
2023-04-14T23:28:50.027Z,18.25
2023-04-14T23:31:18.218Z,20.25
2023-04-14T23:33:47.993Z,17.00
2023-04-14T23:36:15.545Z,19.25
2023-04-14T23:38:42.784Z,13.25
2023-04-14T23:41:10.549Z,19.75
2023-04-14T23:43:37.532Z,13.50
2023-04-14T23:46:05.264Z,12.25
2023-04-14T23:48:32.581Z,16.00
2023-04-14T23:51:16.224Z,12.75
2023-04-14T23:53:47.523Z,14.00
2023-04-14T23:56:14.850Z,22.00
2023-04-14T23:58:41.752Z,25.00
